NOZ623 ENGM-ENBR
Flight info
| Callsign | NOZ623 |
|---|---|
| Flight time | 0h 40m |
| Altitude | 28000 |
| Route | ATLAP DCT AGEKU DCT PESUR |
| Aircraft | B38M/M-SDE1FGHILORVWXY/HB1 |
Departure
| Time | 2026-05-07 14:13 |
|---|---|
| Airport | Oslo-Gardermoen International Airport (ENGM) |
Arrival
| Time | 2026-05-07 14:53 |
|---|---|
| Airport | Bergen Airport, Flesland (ENBR) |
| Time | Latitude | Longitude | Altitude | Speed | Heading |
|---|---|---|---|---|---|
| 2026-05-07 13:41 | 60.19592 | 11.09930 | 680 ft | 0 kts | 107° |
| 2026-05-07 14:03 | 60.19593 | 11.09924 | 682 ft | 3 kts | 108° |
| 2026-05-07 14:03 | 60.19601 | 11.09873 | 680 ft | 4 kts | 109° |
| 2026-05-07 14:03 | 60.19610 | 11.09823 | 679 ft | 4 kts | 110° |
| 2026-05-07 14:03 | 60.19620 | 11.09772 | 678 ft | 4 kts | 112° |
| 2026-05-07 14:04 | 60.19630 | 11.09722 | 678 ft | 4 kts | 113° |
| 2026-05-07 14:04 | 60.19641 | 11.09673 | 677 ft | 4 kts | 113° |
| 2026-05-07 14:04 | 60.19651 | 11.09623 | 681 ft | 3 kts | 110° |
| 2026-05-07 14:04 | 60.19653 | 11.09615 | 678 ft | 0 kts | 109° |
| 2026-05-07 14:07 | 60.19651 | 11.09627 | 681 ft | 3 kts | 105° |
| 2026-05-07 14:07 | 60.19658 | 11.09724 | 680 ft | 11 kts | 46° |
| 2026-05-07 14:07 | 60.19760 | 11.09797 | 682 ft | 21 kts | 15° |
| 2026-05-07 14:07 | 60.19933 | 11.09897 | 681 ft | 29 kts | 16° |
| 2026-05-07 14:08 | 60.20003 | 11.09813 | 683 ft | 12 kts | 286° |
| 2026-05-07 14:08 | 60.20030 | 11.09603 | 682 ft | 19 kts | 285° |
| 2026-05-07 14:08 | 60.20077 | 11.09289 | 683 ft | 28 kts | 287° |
| 2026-05-07 14:08 | 60.20145 | 11.08912 | 682 ft | 24 kts | 323° |
| 2026-05-07 14:09 | 60.20299 | 11.08974 | 681 ft | 27 kts | 18° |
| 2026-05-07 14:09 | 60.20507 | 11.09095 | 682 ft | 35 kts | 15° |
| 2026-05-07 14:09 | 60.20769 | 11.09250 | 685 ft | 43 kts | 16° |
| 2026-05-07 14:09 | 60.21068 | 11.09421 | 686 ft | 44 kts | 16° |
| 2026-05-07 14:10 | 60.21288 | 11.09549 | 683 ft | 24 kts | 16° |
| 2026-05-07 14:10 | 60.21467 | 11.09632 | 685 ft | 23 kts | 4° |
| 2026-05-07 14:10 | 60.21564 | 11.09398 | 686 ft | 27 kts | 285° |
| 2026-05-07 14:10 | 60.21576 | 11.09227 | 684 ft | 12 kts | 255° |
| 2026-05-07 14:11 | 60.21516 | 11.09115 | 684 ft | 0 kts | 194° |
| 2026-05-07 14:11 | 60.21515 | 11.09115 | 684 ft | 0 kts | 194° |
| 2026-05-07 14:12 | 60.21236 | 11.08950 | 678 ft | 91 kts | 195° |
| 2026-05-07 14:12 | 60.20355 | 11.08440 | 779 ft | 163 kts | 195° |
| 2026-05-07 14:13 | 60.19242 | 11.07834 | 1919 ft | 161 kts | 198° |
| 2026-05-07 14:13 | 60.18170 | 11.07148 | 2980 ft | 171 kts | 199° |
| 2026-05-07 14:13 | 60.17013 | 11.06128 | 3640 ft | 193 kts | 219° |
| 2026-05-07 14:13 | 60.16162 | 11.03876 | 4332 ft | 219 kts | 244° |
| 2026-05-07 14:14 | 60.15475 | 11.00969 | 5220 ft | 239 kts | 245° |
| 2026-05-07 14:14 | 60.14750 | 10.97859 | 6117 ft | 257 kts | 245° |
| 2026-05-07 14:14 | 60.14175 | 10.94371 | 7162 ft | 265 kts | 264° |
| 2026-05-07 14:14 | 60.14038 | 10.90678 | 8430 ft | 266 kts | 266° |
| 2026-05-07 14:15 | 60.13892 | 10.86972 | 9622 ft | 269 kts | 266° |
| 2026-05-07 14:15 | 60.13752 | 10.83206 | 10677 ft | 277 kts | 266° |
| 2026-05-07 14:15 | 60.13610 | 10.79223 | 11317 ft | 297 kts | 266° |
| 2026-05-07 14:15 | 60.13461 | 10.74966 | 12046 ft | 311 kts | 266° |
| 2026-05-07 14:16 | 60.13316 | 10.70613 | 13003 ft | 315 kts | 268° |
| 2026-05-07 14:16 | 60.13650 | 10.66268 | 14021 ft | 319 kts | 290° |
| 2026-05-07 14:16 | 60.14834 | 10.62488 | 14909 ft | 326 kts | 311° |
| 2026-05-07 14:16 | 60.16659 | 10.59794 | 15834 ft | 334 kts | 328° |
| 2026-05-07 14:17 | 60.18742 | 10.57628 | 16682 ft | 339 kts | 328° |
| 2026-05-07 14:17 | 60.20841 | 10.55447 | 17510 ft | 341 kts | 327° |
| 2026-05-07 14:17 | 60.22751 | 10.52684 | 18322 ft | 337 kts | 309° |
| 2026-05-07 14:17 | 60.24024 | 10.48760 | 19026 ft | 333 kts | 291° |
| 2026-05-07 14:18 | 60.24796 | 10.44378 | 19708 ft | 336 kts | 287° |
| 2026-05-07 14:18 | 60.25520 | 10.39857 | 20430 ft | 338 kts | 286° |
| 2026-05-07 14:18 | 60.26207 | 10.35344 | 21126 ft | 341 kts | 285° |
| 2026-05-07 14:18 | 60.26885 | 10.30762 | 21817 ft | 343 kts | 285° |
| 2026-05-07 14:19 | 60.27554 | 10.26146 | 22522 ft | 345 kts | 285° |
| 2026-05-07 14:19 | 60.28220 | 10.21492 | 23196 ft | 348 kts | 285° |
| 2026-05-07 14:19 | 60.28677 | 10.16699 | 23808 ft | 351 kts | 272° |
| 2026-05-07 14:19 | 60.28312 | 10.11803 | 24373 ft | 356 kts | 254° |
| 2026-05-07 14:20 | 60.27161 | 10.07353 | 24905 ft | 367 kts | 238° |
| 2026-05-07 14:20 | 60.25489 | 10.03446 | 25477 ft | 372 kts | 234° |
| 2026-05-07 14:20 | 60.23747 | 9.99580 | 25973 ft | 375 kts | 233° |
| 2026-05-07 14:20 | 60.21962 | 9.95697 | 26495 ft | 377 kts | 233° |
| 2026-05-07 14:21 | 60.20177 | 9.91866 | 26955 ft | 380 kts | 233° |
| 2026-05-07 14:21 | 60.18341 | 9.87958 | 27475 ft | 383 kts | 233° |
| 2026-05-07 14:21 | 60.16598 | 9.83950 | 27798 ft | 382 kts | 242° |
| 2026-05-07 14:21 | 60.15512 | 9.79247 | 27883 ft | 370 kts | 259° |
| 2026-05-07 14:22 | 60.15221 | 9.74111 | 27981 ft | 369 kts | 272° |
| 2026-05-07 14:22 | 60.15271 | 9.69006 | 27967 ft | 368 kts | 273° |
| 2026-05-07 14:22 | 60.15389 | 9.63875 | 27991 ft | 368 kts | 274° |
| 2026-05-07 14:23 | 60.15731 | 9.53597 | 28044 ft | 368 kts | 275° |
| 2026-05-07 14:23 | 60.16120 | 9.43374 | 28051 ft | 368 kts | 275° |
| 2026-05-07 14:24 | 60.16518 | 9.33125 | 28063 ft | 367 kts | 275° |
| 2026-05-07 14:24 | 60.16912 | 9.22902 | 28046 ft | 367 kts | 275° |
| 2026-05-07 14:25 | 60.17296 | 9.12720 | 28051 ft | 367 kts | 275° |
| 2026-05-07 14:25 | 60.17674 | 9.02479 | 28084 ft | 367 kts | 275° |
| 2026-05-07 14:26 | 60.18043 | 8.92304 | 28062 ft | 367 kts | 275° |
| 2026-05-07 14:26 | 60.18405 | 8.82047 | 28095 ft | 367 kts | 275° |
| 2026-05-07 14:27 | 60.18757 | 8.71869 | 28095 ft | 367 kts | 275° |
| 2026-05-07 14:27 | 60.19103 | 8.61644 | 28096 ft | 367 kts | 274° |
| 2026-05-07 14:28 | 60.19433 | 8.51649 | 28146 ft | 345 kts | 274° |
| 2026-05-07 14:28 | 60.19587 | 8.46914 | 28127 ft | 330 kts | 274° |
| 2026-05-07 14:28 | 60.19734 | 8.42357 | 27895 ft | 325 kts | 274° |
| 2026-05-07 14:28 | 60.19882 | 8.37736 | 27311 ft | 336 kts | 274° |
| 2026-05-07 14:29 | 60.20031 | 8.33052 | 26854 ft | 339 kts | 274° |
| 2026-05-07 14:29 | 60.20177 | 8.28312 | 26294 ft | 342 kts | 274° |
| 2026-05-07 14:29 | 60.20322 | 8.23552 | 25800 ft | 340 kts | 274° |
| 2026-05-07 14:29 | 60.20416 | 8.20418 | 25528 ft | 337 kts | 274° |
| 2026-05-07 14:30 | 60.20557 | 8.15737 | 25089 ft | 335 kts | 274° |
| 2026-05-07 14:30 | 60.20697 | 8.11027 | 24625 ft | 333 kts | 274° |
| 2026-05-07 14:30 | 60.20832 | 8.06446 | 24188 ft | 331 kts | 273° |
| 2026-05-07 14:30 | 60.20967 | 8.01807 | 23752 ft | 330 kts | 273° |
| 2026-05-07 14:31 | 60.21097 | 7.97244 | 23249 ft | 328 kts | 273° |
| 2026-05-07 14:31 | 60.21226 | 7.92708 | 22785 ft | 326 kts | 273° |
| 2026-05-07 14:31 | 60.21354 | 7.88139 | 22353 ft | 322 kts | 273° |
| 2026-05-07 14:31 | 60.21477 | 7.83669 | 21952 ft | 319 kts | 273° |
| 2026-05-07 14:32 | 60.21598 | 7.79270 | 21571 ft | 316 kts | 273° |
| 2026-05-07 14:32 | 60.21717 | 7.74844 | 21182 ft | 316 kts | 273° |
| 2026-05-07 14:32 | 60.21834 | 7.70449 | 20794 ft | 321 kts | 272° |
| 2026-05-07 14:32 | 60.21954 | 7.65908 | 20404 ft | 324 kts | 272° |
| 2026-05-07 14:33 | 60.22071 | 7.61404 | 20029 ft | 324 kts | 272° |
| 2026-05-07 14:33 | 60.22186 | 7.56908 | 19663 ft | 323 kts | 272° |
| 2026-05-07 14:33 | 60.22299 | 7.52416 | 19297 ft | 322 kts | 272° |
| 2026-05-07 14:33 | 60.22411 | 7.47929 | 18902 ft | 321 kts | 272° |
| 2026-05-07 14:34 | 60.22521 | 7.43466 | 18544 ft | 320 kts | 272° |
| 2026-05-07 14:34 | 60.22630 | 7.38962 | 18134 ft | 319 kts | 272° |
| 2026-05-07 14:34 | 60.22736 | 7.34541 | 17744 ft | 318 kts | 272° |
| 2026-05-07 14:34 | 60.22841 | 7.30110 | 17371 ft | 317 kts | 272° |
| 2026-05-07 14:35 | 60.22944 | 7.25690 | 17007 ft | 316 kts | 272° |
| 2026-05-07 14:35 | 60.23044 | 7.21335 | 16629 ft | 315 kts | 272° |
| 2026-05-07 14:35 | 60.23144 | 7.16905 | 16259 ft | 313 kts | 271° |
| 2026-05-07 14:35 | 60.23241 | 7.12560 | 15904 ft | 313 kts | 271° |
| 2026-05-07 14:36 | 60.23336 | 7.08208 | 15546 ft | 312 kts | 271° |
| 2026-05-07 14:36 | 60.23431 | 7.03842 | 15193 ft | 310 kts | 271° |
| 2026-05-07 14:36 | 60.23523 | 6.99512 | 14849 ft | 310 kts | 271° |
| 2026-05-07 14:36 | 60.23613 | 6.95192 | 14466 ft | 309 kts | 271° |
| 2026-05-07 14:37 | 60.23702 | 6.90889 | 14113 ft | 307 kts | 271° |
| 2026-05-07 14:37 | 60.23873 | 6.82405 | 13364 ft | 300 kts | 271° |
| 2026-05-07 14:37 | 60.23955 | 6.78252 | 13015 ft | 297 kts | 271° |
| 2026-05-07 14:38 | 60.24034 | 6.74158 | 12679 ft | 293 kts | 271° |
| 2026-05-07 14:38 | 60.24113 | 6.70069 | 12342 ft | 294 kts | 270° |
| 2026-05-07 14:38 | 60.24192 | 6.65897 | 11999 ft | 299 kts | 270° |
| 2026-05-07 14:38 | 60.24272 | 6.61711 | 11655 ft | 303 kts | 270° |
| 2026-05-07 14:39 | 60.24507 | 6.57464 | 11226 ft | 305 kts | 283° |
| 2026-05-07 14:39 | 60.25154 | 6.53440 | 10838 ft | 303 kts | 285° |
| 2026-05-07 14:39 | 60.25794 | 6.49458 | 10620 ft | 297 kts | 285° |
| 2026-05-07 14:39 | 60.26422 | 6.45552 | 10503 ft | 288 kts | 285° |
| 2026-05-07 14:40 | 60.27031 | 6.41759 | 10341 ft | 279 kts | 285° |
| 2026-05-07 14:40 | 60.27611 | 6.38139 | 10220 ft | 270 kts | 285° |
| 2026-05-07 14:40 | 60.28180 | 6.34580 | 10100 ft | 261 kts | 284° |
| 2026-05-07 14:40 | 60.28729 | 6.31139 | 9933 ft | 253 kts | 284° |
| 2026-05-07 14:41 | 60.29263 | 6.27789 | 9682 ft | 255 kts | 284° |
| 2026-05-07 14:41 | 60.29808 | 6.24360 | 9382 ft | 261 kts | 284° |
| 2026-05-07 14:41 | 60.30368 | 6.20832 | 9064 ft | 264 kts | 285° |
| 2026-05-07 14:41 | 60.30925 | 6.17318 | 8782 ft | 265 kts | 285° |
| 2026-05-07 14:42 | 60.31484 | 6.13784 | 8506 ft | 266 kts | 285° |
| 2026-05-07 14:42 | 60.32044 | 6.10232 | 8198 ft | 265 kts | 285° |
| 2026-05-07 14:42 | 60.32602 | 6.06687 | 7935 ft | 261 kts | 285° |
| 2026-05-07 14:42 | 60.33151 | 6.03198 | 7650 ft | 259 kts | 285° |
| 2026-05-07 14:43 | 60.33691 | 5.99748 | 7378 ft | 258 kts | 285° |
| 2026-05-07 14:43 | 60.34225 | 5.96335 | 7107 ft | 256 kts | 285° |
| 2026-05-07 14:43 | 60.34765 | 5.92878 | 6816 ft | 256 kts | 285° |
| 2026-05-07 14:43 | 60.35296 | 5.89478 | 6552 ft | 255 kts | 286° |
| 2026-05-07 14:44 | 60.35822 | 5.86085 | 6229 ft | 253 kts | 286° |
| 2026-05-07 14:44 | 60.36349 | 5.82698 | 5956 ft | 250 kts | 285° |
| 2026-05-07 14:44 | 60.36862 | 5.79391 | 5692 ft | 248 kts | 286° |
| 2026-05-07 14:44 | 60.37375 | 5.76078 | 5423 ft | 246 kts | 285° |
| 2026-05-07 14:45 | 60.37891 | 5.72722 | 5165 ft | 252 kts | 286° |
| 2026-05-07 14:45 | 60.38409 | 5.69364 | 4989 ft | 253 kts | 286° |
| 2026-05-07 14:45 | 60.38926 | 5.65997 | 4974 ft | 240 kts | 286° |
| 2026-05-07 14:45 | 60.39406 | 5.62879 | 4999 ft | 227 kts | 285° |
| 2026-05-07 14:46 | 60.39867 | 5.59872 | 4860 ft | 220 kts | 286° |
| 2026-05-07 14:46 | 60.40307 | 5.56999 | 4606 ft | 219 kts | 285° |
| 2026-05-07 14:46 | 60.40749 | 5.54105 | 4381 ft | 216 kts | 285° |
| 2026-05-07 14:46 | 60.41187 | 5.51232 | 4181 ft | 211 kts | 285° |
| 2026-05-07 14:47 | 60.41619 | 5.48399 | 4088 ft | 213 kts | 285° |
| 2026-05-07 14:47 | 60.41993 | 5.45670 | 4000 ft | 212 kts | 274° |
| 2026-05-07 14:47 | 60.41885 | 5.42773 | 3979 ft | 209 kts | 258° |
| 2026-05-07 14:47 | 60.41675 | 5.39967 | 4041 ft | 192 kts | 260° |
| 2026-05-07 14:48 | 60.41475 | 5.37325 | 3820 ft | 191 kts | 258° |
| 2026-05-07 14:48 | 60.41268 | 5.34665 | 3483 ft | 194 kts | 259° |
| 2026-05-07 14:48 | 60.41055 | 5.31976 | 3114 ft | 196 kts | 258° |
| 2026-05-07 14:48 | 60.40834 | 5.29254 | 2726 ft | 198 kts | 259° |
| 2026-05-07 14:49 | 60.40607 | 5.26500 | 2398 ft | 197 kts | 257° |
| 2026-05-07 14:49 | 60.40222 | 5.23916 | 2123 ft | 192 kts | 244° |
| 2026-05-07 14:49 | 60.39499 | 5.21752 | 1871 ft | 176 kts | 225° |
| 2026-05-07 14:49 | 60.38581 | 5.20328 | 1654 ft | 155 kts | 208° |
| 2026-05-07 14:50 | 60.37659 | 5.19606 | 1506 ft | 136 kts | 195° |
| 2026-05-07 14:50 | 60.36746 | 5.19381 | 1373 ft | 130 kts | 182° |
| 2026-05-07 14:50 | 60.35841 | 5.19542 | 1221 ft | 131 kts | 169° |
| 2026-05-07 14:50 | 60.34950 | 5.19941 | 1016 ft | 132 kts | 169° |
| 2026-05-07 14:51 | 60.34026 | 5.20293 | 887 ft | 136 kts | 172° |
| 2026-05-07 14:51 | 60.33080 | 5.20601 | 787 ft | 140 kts | 174° |
| 2026-05-07 14:51 | 60.32140 | 5.20903 | 530 ft | 133 kts | 172° |
| 2026-05-07 14:51 | 60.31236 | 5.21191 | 358 ft | 133 kts | 174° |
| 2026-05-07 14:52 | 60.30287 | 5.21507 | 218 ft | 135 kts | 174° |
| 2026-05-07 14:52 | 60.29424 | 5.21787 | 156 ft | 111 kts | 172° |
| 2026-05-07 14:52 | 60.28890 | 5.21960 | 166 ft | 63 kts | 170° |
| 2026-05-07 14:52 | 60.28476 | 5.22106 | 160 ft | 56 kts | 171° |
| 2026-05-07 14:53 | 60.28283 | 5.22320 | 157 ft | 22 kts | 93° |
| 2026-05-07 14:53 | 60.28297 | 5.22480 | 160 ft | 6 kts | 69° |
| 2026-05-07 14:53 | 60.28316 | 5.22568 | 162 ft | 9 kts | 47° |
| 2026-05-07 14:53 | 60.28398 | 5.22574 | 164 ft | 16 kts | 351° |
| 2026-05-07 14:54 | 60.28536 | 5.22530 | 168 ft | 24 kts | 351° |
| 2026-05-07 14:54 | 60.28706 | 5.22481 | 175 ft | 17 kts | 2° |
| 2026-05-07 14:54 | 60.28789 | 5.22557 | 178 ft | 9 kts | 34° |
| 2026-05-07 14:54 | 60.28825 | 5.22607 | 178 ft | 1 kts | 33° |
| 2026-05-07 14:55 | 60.28827 | 5.22610 | 178 ft | 0 kts | 34° |